createdAt,value
2022-11-12T06:32:36.312Z,40.78
2022-11-12T06:35:02.972Z,41.63
2022-11-12T06:37:29.505Z,42.15
2022-11-12T06:39:56.034Z,41.87
2022-11-12T06:42:22.544Z,41.53
2022-11-12T06:44:49.030Z,40.42
2022-11-12T06:47:15.809Z,40.78
2022-11-12T06:49:42.319Z,38.20
2022-11-12T06:52:13.642Z,36.80
2022-11-12T06:54:42.920Z,37.15
2022-11-12T06:57:09.523Z,35.05
2022-11-12T06:59:36.048Z,36.15
2022-11-12T07:02:02.687Z,34.70
2022-11-12T07:04:29.222Z,33.03
2022-11-12T07:06:56.911Z,33.95
2022-11-12T07:09:23.512Z,32.90
2022-11-12T07:11:50.042Z,32.83
2022-11-12T07:14:16.548Z,32.50
2022-11-12T07:16:43.102Z,32.47
2022-11-12T07:19:09.631Z,30.92
2022-11-12T07:21:36.176Z,30.88
2022-11-12T07:24:02.799Z,30.45
2022-11-12T07:26:29.647Z,28.73
2022-11-12T07:28:56.702Z,27.40
2022-11-12T07:31:23.734Z,28.05
2022-11-12T07:33:50.766Z,27.60
2022-11-12T07:36:19.858Z,27.92
2022-11-12T07:38:47.599Z,26.88
2022-11-12T07:41:17.030Z,25.50
2022-11-12T07:43:45.380Z,26.00
2022-11-12T07:46:13.492Z,24.73
2022-11-12T07:48:40.852Z,23.88
2022-11-12T07:51:13.127Z,23.67
2022-11-12T07:53:40.799Z,23.50
2022-11-12T07:56:07.943Z,21.92
2022-11-12T07:58:34.813Z,21.55
2022-11-12T08:01:09.912Z,20.52
2022-11-12T08:03:37.387Z,21.13
2022-11-12T08:06:04.530Z,20.87
2022-11-12T08:08:31.058Z,20.35
2022-11-12T08:10:58.543Z,20.83
2022-11-12T08:13:25.630Z,21.70
2022-11-12T08:15:52.613Z,19.65
2022-11-12T08:18:19.218Z,18.43
2022-11-12T08:20:45.714Z,18.67
2022-11-12T08:23:12.214Z,16.83
2022-11-12T08:25:38.718Z,17.50
2022-11-12T08:28:05.537Z,15.60
2022-11-12T08:30:32.179Z,15.63
2022-11-12T08:33:07.622Z,15.18
2022-11-12T08:35:34.230Z,13.63
2022-11-12T08:38:03.008Z,14.55
2022-11-12T08:40:32.007Z,13.38
2022-11-12T08:43:05.957Z,13.83
2022-11-12T08:45:34.334Z,13.23
2022-11-12T08:48:02.436Z,13.93
2022-11-12T08:50:30.284Z,11.88
2022-11-12T08:53:05.138Z,12.65
2022-11-12T08:55:33.457Z,13.07
2022-11-12T08:58:02.245Z,12.68
2022-11-12T09:00:38.308Z,12.68
2022-11-12T09:03:06.856Z,12.70
2022-11-12T09:05:36.246Z,13.40
2022-11-12T09:08:06.017Z,13.27
2022-11-12T09:10:32.981Z,13.40
2022-11-12T09:12:59.552Z,13.70
2022-11-12T09:15:42.239Z,13.25
2022-11-12T09:18:12.676Z,13.68
2022-11-12T09:20:39.271Z,14.23
2022-11-12T09:23:11.999Z,13.77
2022-11-12T15:33:49.561Z,16.38
2022-11-12T15:36:22.441Z,15.98
2022-11-12T15:38:53.124Z,16.73
2022-11-12T15:41:27.186Z,17.70
2022-11-12T15:43:54.307Z,17.17
2022-11-12T15:46:21.620Z,17.75
2022-11-12T15:48:52.848Z,17.42
2022-11-12T15:51:22.314Z,18.30
2022-11-12T15:53:48.967Z,18.23
2022-11-12T15:56:18.553Z,18.65
2022-11-12T15:58:45.684Z,18.05
2022-11-12T16:01:12.874Z,17.77
2022-11-12T16:03:39.487Z,19.30
2022-11-12T16:06:09.166Z,19.73
2022-11-12T16:08:36.173Z,19.48
2022-11-12T16:11:03.527Z,19.67
2022-11-12T16:13:33.339Z,20.50
2022-11-12T16:16:03.326Z,19.90
2022-11-12T16:18:29.815Z,19.83
2022-11-12T16:20:56.310Z,19.48
2022-11-12T16:23:22.989Z,20.10
2022-11-12T16:25:49.731Z,20.98
2022-11-12T16:28:18.392Z,19.95
2022-11-12T16:30:46.631Z,20.17
2022-11-12T16:33:13.648Z,20.05
2022-11-12T16:35:40.308Z,20.38
2022-11-12T16:38:13.845Z,20.55
2022-11-12T16:40:40.783Z,20.58
2022-11-12T16:43:07.379Z,21.80
2022-11-12T16:45:37.754Z,21.23
2022-11-12T16:48:21.457Z,21.77
2022-11-12T16:50:48.408Z,21.80
2022-11-12T16:53:14.919Z,22.77
2022-11-12T16:55:41.574Z,21.73
2022-11-12T16:58:12.927Z,24.33
2022-11-12T17:00:40.975Z,22.40
2022-11-12T17:03:08.543Z,21.95
2022-11-12T17:05:35.099Z,21.40
2022-11-12T17:08:01.565Z,21.80
2022-11-12T17:10:28.092Z,21.70
2022-11-12T17:12:54.631Z,21.27
2022-11-12T17:15:21.178Z,24.30
2022-11-12T17:17:48.081Z,26.33
2022-11-12T17:20:14.634Z,24.10
2022-11-12T17:22:41.140Z,23.15
2022-11-12T17:25:08.412Z,23.38
2022-11-12T17:27:35.075Z,24.98
2022-11-12T17:30:02.219Z,25.90
2022-11-12T17:32:28.755Z,23.17
2022-11-12T17:34:55.312Z,22.85
2022-11-12T17:37:21.834Z,24.20
2022-11-12T17:39:48.419Z,25.63
2022-11-12T17:42:14.991Z,26.08
2022-11-12T17:44:41.554Z,27.17
2022-11-12T17:47:08.125Z,32.33
2022-11-12T17:49:34.641Z,28.92
2022-11-12T17:52:01.184Z,30.60
2022-11-12T17:54:27.714Z,29.30
2022-11-12T17:56:54.219Z,38.10
2022-11-12T17:59:20.723Z,41.17
2022-11-12T18:01:47.277Z,39.22
2022-11-12T18:04:13.747Z,40.10
2022-11-12T18:06:40.362Z,36.15
2022-11-12T18:09:17.384Z,38.37
2022-11-12T18:11:54.689Z,37.70
2022-11-12T18:14:23.108Z,33.38
2022-11-12T18:16:49.865Z,30.67
2022-11-12T18:19:17.057Z,30.90
2022-11-12T18:21:44.380Z,30.40
2022-11-12T18:24:15.289Z,31.10
2022-11-12T18:26:42.953Z,29.73
2022-11-12T18:29:09.525Z,30.55
2022-11-12T18:31:36.144Z,31.45
2022-11-12T18:34:02.710Z,32.83
2022-11-12T18:36:29.261Z,34.95
2022-11-12T18:38:56.192Z,34.63
2022-11-12T18:41:25.834Z,36.35
2022-11-12T18:43:54.370Z,34.75
2022-11-12T18:46:21.106Z,35.53
2022-11-12T18:48:47.880Z,35.10
2022-11-12T18:51:17.473Z,31.63
2022-11-12T18:53:45.691Z,33.33
2022-11-12T18:56:14.667Z,32.17
2022-11-12T18:58:41.577Z,31.47
2022-11-12T19:01:13.428Z,32.45
2022-11-12T19:03:40.029Z,33.15
2022-11-12T19:06:07.527Z,34.47
2022-11-12T19:08:34.707Z,35.10
2022-11-12T19:11:04.010Z,35.37
2022-11-12T19:13:30.906Z,36.88
2022-11-12T19:16:11.692Z,37.55
2022-11-12T19:18:39.994Z,37.10
2022-11-12T19:21:12.962Z,36.45
2022-11-12T19:23:39.716Z,35.97
2022-11-12T19:26:07.710Z,34.33
2022-11-12T19:28:35.070Z,32.85
2022-11-12T19:31:12.063Z,33.65
2022-11-12T19:33:38.662Z,32.97
2022-11-12T19:36:07.347Z,34.57
2022-11-12T19:38:33.976Z,32.33
2022-11-12T19:41:17.773Z,31.42
2022-11-12T19:43:46.099Z,32.30
2022-11-12T19:46:13.498Z,31.90
2022-11-12T19:48:40.187Z,32.00
2022-11-12T19:51:09.190Z,32.53
2022-11-12T19:53:38.064Z,32.00
2022-11-12T19:56:06.642Z,31.40
2022-11-12T19:58:34.296Z,35.50
2022-11-12T20:01:08.823Z,31.63
2022-11-12T20:03:36.139Z,32.25
2022-11-12T20:06:08.341Z,30.77
2022-11-12T20:08:35.337Z,31.75
2022-11-12T20:11:02.273Z,31.50
2022-11-12T20:13:28.987Z,33.57
2022-11-12T20:15:55.625Z,30.65
2022-11-12T20:18:22.605Z,31.00
2022-11-12T20:20:54.951Z,33.90
2022-11-12T20:23:26.176Z,36.03
2022-11-12T20:25:53.721Z,42.03
2022-11-12T20:28:20.331Z,43.83
2022-11-12T20:30:47.373Z,37.08
2022-11-12T20:33:14.336Z,43.00
2022-11-12T20:35:40.832Z,38.42
2022-11-12T20:38:07.370Z,36.97
2022-11-12T20:40:33.890Z,37.65
2022-11-12T20:43:00.437Z,40.05
2022-11-12T20:45:27.194Z,38.97
2022-11-12T20:47:55.872Z,36.63
2022-11-12T20:50:22.396Z,35.87
2022-11-12T20:52:49.361Z,36.03
2022-11-12T20:55:16.088Z,36.00
2022-11-12T20:57:42.617Z,42.17
2022-11-12T21:00:13.789Z,42.20
2022-11-12T21:02:41.610Z,43.57
2022-11-12T21:05:08.361Z,46.20
2022-11-12T21:07:34.993Z,39.55
2022-11-12T21:10:01.812Z,41.08
2022-11-12T21:12:28.347Z,36.42
2022-11-12T21:14:54.987Z,33.20
2022-11-12T21:17:21.709Z,31.00
2022-11-12T21:19:48.210Z,32.35
2022-11-12T21:22:15.569Z,30.98
2022-11-12T21:24:42.139Z,29.50
2022-11-12T21:27:11.413Z,27.23
2022-11-12T21:29:38.266Z,27.42
2022-11-12T21:32:05.240Z,28.23
2022-11-12T21:34:31.952Z,27.95
2022-11-12T21:36:58.482Z,26.85
2022-11-12T21:39:24.994Z,25.43
2022-11-12T21:41:53.885Z,25.40
2022-11-12T21:44:20.859Z,25.42
2022-11-12T21:46:47.495Z,27.23
2022-11-12T21:49:13.955Z,29.05
2022-11-12T21:51:40.534Z,30.97
2022-11-12T21:54:07.762Z,27.88
2022-11-12T21:56:34.546Z,25.20
2022-11-12T21:59:02.354Z,25.45
2022-11-12T22:01:31.440Z,28.90
2022-11-12T22:03:59.506Z,30.43
2022-11-12T22:06:28.894Z,30.65
2022-11-12T22:08:57.143Z,29.30
2022-11-12T22:11:25.178Z,28.10
2022-11-12T22:13:51.696Z,27.42
2022-11-12T22:16:20.541Z,27.23
2022-11-12T22:18:49.482Z,26.90
2022-11-12T22:21:27.497Z,26.40
2022-11-12T22:23:55.298Z,26.27
2022-11-12T22:26:25.342Z,27.05
2022-11-12T22:28:53.368Z,25.87
2022-11-12T22:31:26.968Z,26.42
2022-11-12T22:33:54.228Z,27.55
2022-11-12T22:36:22.837Z,26.98
2022-11-12T22:38:51.107Z,25.55
2022-11-12T22:41:23.028Z,24.30
2022-11-12T22:43:51.609Z,25.73
2022-11-12T22:46:21.075Z,24.60
2022-11-12T22:48:47.580Z,24.13
2022-11-12T22:51:22.693Z,21.08
2022-11-12T22:53:54.245Z,20.80
2022-11-12T22:56:20.869Z,21.75
2022-11-12T22:58:47.720Z,22.77
2022-11-12T23:01:41.470Z,23.60
2022-11-12T23:04:08.136Z,23.27
2022-11-12T23:06:35.202Z,23.90
2022-11-12T23:09:01.852Z,22.35
2022-11-12T23:11:28.580Z,22.50
2022-11-12T23:13:55.828Z,23.10
2022-11-12T23:16:25.938Z,21.52
2022-11-12T23:18:53.209Z,23.20
2022-11-12T23:21:22.155Z,22.77
2022-11-12T23:23:49.104Z,23.85
2022-11-12T23:26:18.257Z,24.65
2022-11-12T23:28:45.333Z,25.95
2022-11-12T23:31:17.462Z,26.53
2022-11-12T23:33:48.621Z,27.73
2022-11-12T23:36:15.947Z,26.65
2022-11-12T23:38:43.016Z,27.42
2022-11-12T23:41:11.707Z,25.55
2022-11-12T23:43:38.368Z,25.13
2022-11-12T23:46:05.379Z,23.67
2022-11-12T23:48:31.981Z,22.02
2022-11-12T23:51:04.539Z,21.30
2022-11-12T23:53:34.836Z,20.77
2022-11-12T23:56:02.032Z,20.57
2022-11-12T23:58:29.334Z,19.27
